METAR Data

Data at: 1124 UTC 24 May 2022

METAR for:KPWM (Portland Intl, ME, US)
Text:KPWM 241051Z 02007KT 10SM FEW150 BKN250 10/03 A3037 RMK AO2 SLP284 T01000028
Temperature: 10.0°C ( 50°F)
Dewpoint: 2.8°C ( 37°F) [RH = 61%]
Pressure (altimeter):30.37 inches Hg (1028.5 mb) [Sea level pressure: 1028.4 mb]
Winds:from the NNE (20 degrees) at 8 MPH (7 knots; 3.6 m/s)
Visibility:10 or more sm (16+ km)
Ceiling:25000 feet AGL
Clouds: few clouds at 15000 feet AGL, broken clouds at 25000 feet AGL